sensor_id;sensor_type;location;lat;lon;timestamp;P1;durP1;ratioP1;P2;durP2;ratioP2
42754;SDS011;28407;51.830;5.684;2023-05-27T00:00:55;5.22;;;1.95;;
42754;SDS011;28407;51.830;5.684;2023-05-27T00:02:56;4.45;;;1.83;;
42754;SDS011;28407;51.830;5.684;2023-05-27T00:04:56;4.65;;;2.00;;
42754;SDS011;28407;51.830;5.684;2023-05-27T00:06:57;4.45;;;2.10;;
42754;SDS011;28407;51.830;5.684;2023-05-27T00:08:58;5.63;;;2.10;;
42754;SDS011;28407;51.830;5.684;2023-05-27T00:10:58;8.10;;;3.53;;
42754;SDS011;28407;51.830;5.684;2023-05-27T00:12:59;3.90;;;1.80;;
42754;SDS011;28407;51.830;5.684;2023-05-27T00:14:59;4.03;;;1.60;;
42754;SDS011;28407;51.830;5.684;2023-05-27T00:17:00;4.43;;;2.10;;
42754;SDS011;28407;51.830;5.684;2023-05-27T00:19:02;4.77;;;2.27;;
42754;SDS011;28407;51.830;5.684;2023-05-27T00:21:03;6.38;;;1.83;;
42754;SDS011;28407;51.830;5.684;2023-05-27T00:23:04;6.18;;;2.03;;
42754;SDS011;28407;51.830;5.684;2023-05-27T00:25:04;5.70;;;2.30;;
42754;SDS011;28407;51.830;5.684;2023-05-27T00:27:05;5.57;;;2.30;;
42754;SDS011;28407;51.830;5.684;2023-05-27T00:29:07;7.90;;;3.17;;
42754;SDS011;28407;51.830;5.684;2023-05-27T00:31:08;4.90;;;2.38;;
42754;SDS011;28407;51.830;5.684;2023-05-27T00:33:08;4.57;;;2.05;;
42754;SDS011;28407;51.830;5.684;2023-05-27T00:35:09;6.35;;;2.08;;
42754;SDS011;28407;51.830;5.684;2023-05-27T00:37:10;5.25;;;1.88;;
42754;SDS011;28407;51.830;5.684;2023-05-27T00:39:10;5.80;;;1.95;;
42754;SDS011;28407;51.830;5.684;2023-05-27T00:41:11;5.07;;;2.00;;
42754;SDS011;28407;51.830;5.684;2023-05-27T00:43:12;2.87;;;1.77;;
42754;SDS011;28407;51.830;5.684;2023-05-27T00:45:13;6.57;;;2.15;;
42754;SDS011;28407;51.830;5.684;2023-05-27T00:47:14;6.10;;;2.65;;
42754;SDS011;28407;51.830;5.684;2023-05-27T00:49:16;6.88;;;2.55;;
42754;SDS011;28407;51.830;5.684;2023-05-27T00:51:18;5.68;;;1.80;;
42754;SDS011;28407;51.830;5.684;2023-05-27T00:53:18;3.33;;;1.80;;
42754;SDS011;28407;51.830;5.684;2023-05-27T00:55:20;3.92;;;1.90;;
42754;SDS011;28407;51.830;5.684;2023-05-27T00:57:22;3.40;;;2.00;;
42754;SDS011;28407;51.830;5.684;2023-05-27T00:59:22;5.28;;;2.25;;
42754;SDS011;28407;51.830;5.684;2023-05-27T01:01:23;5.20;;;2.42;;
42754;SDS011;28407;51.830;5.684;2023-05-27T01:03:25;5.13;;;2.13;;
42754;SDS011;28407;51.830;5.684;2023-05-27T01:05:28;6.68;;;2.42;;
42754;SDS011;28407;51.830;5.684;2023-05-27T01:07:31;6.07;;;3.30;;
42754;SDS011;28407;51.830;5.684;2023-05-27T01:09:56;6.28;;;2.20;;
42754;SDS011;28407;51.830;5.684;2023-05-27T01:12:10;4.95;;;2.05;;
42754;SDS011;28407;51.830;5.684;2023-05-27T01:14:16;5.30;;;2.30;;
42754;SDS011;28407;51.830;5.684;2023-05-27T01:16:18;5.35;;;2.35;;
42754;SDS011;28407;51.830;5.684;2023-05-27T01:18:18;5.72;;;2.10;;
42754;SDS011;28407;51.830;5.684;2023-05-27T01:20:23;3.13;;;1.80;;
42754;SDS011;28407;51.830;5.684;2023-05-27T01:22:26;5.60;;;2.35;;
42754;SDS011;28407;51.830;5.684;2023-05-27T01:24:28;4.95;;;2.05;;
42754;SDS011;28407;51.830;5.684;2023-05-27T01:26:29;4.03;;;2.40;;
42754;SDS011;28407;51.830;5.684;2023-05-27T01:28:29;4.05;;;2.00;;
42754;SDS011;28407;51.830;5.684;2023-05-27T01:30:30;5.03;;;2.17;;
42754;SDS011;28407;51.830;5.684;2023-05-27T01:32:40;5.18;;;2.33;;
42754;SDS011;28407;51.830;5.684;2023-05-27T01:34:52;6.35;;;2.60;;
42754;SDS011;28407;51.830;5.684;2023-05-27T01:37:13;5.03;;;2.08;;
42754;SDS011;28407;51.830;5.684;2023-05-27T01:39:18;6.18;;;2.03;;
42754;SDS011;28407;51.830;5.684;2023-05-27T01:41:19;6.18;;;2.75;;
42754;SDS011;28407;51.830;5.684;2023-05-27T01:43:21;5.38;;;2.58;;
42754;SDS011;28407;51.830;5.684;2023-05-27T01:47:24;5.60;;;2.45;;
42754;SDS011;28407;51.830;5.684;2023-05-27T01:49:25;6.80;;;2.53;;
42754;SDS011;28407;51.830;5.684;2023-05-27T01:51:26;3.22;;;2.20;;
42754;SDS011;28407;51.830;5.684;2023-05-27T01:53:27;5.93;;;2.72;;
42754;SDS011;28407;51.830;5.684;2023-05-27T01:55:27;7.18;;;3.03;;
42754;SDS011;28407;51.830;5.684;2023-05-27T01:57:28;6.60;;;3.53;;
42754;SDS011;28407;51.830;5.684;2023-05-27T01:59:29;6.03;;;2.47;;
42754;SDS011;28407;51.830;5.684;2023-05-27T02:01:30;4.93;;;2.17;;
42754;SDS011;28407;51.830;5.684;2023-05-27T02:03:34;5.28;;;2.35;;
42754;SDS011;28407;51.830;5.684;2023-05-27T02:05:35;5.97;;;2.30;;
42754;SDS011;28407;51.830;5.684;2023-05-27T02:07:36;5.57;;;2.33;;
42754;SDS011;28407;51.830;5.684;2023-05-27T02:09:36;6.53;;;2.50;;
42754;SDS011;28407;51.830;5.684;2023-05-27T02:11:37;7.55;;;2.95;;
42754;SDS011;28407;51.830;5.684;2023-05-27T02:13:37;5.65;;;2.63;;
42754;SDS011;28407;51.830;5.684;2023-05-27T02:15:38;5.22;;;2.33;;
42754;SDS011;28407;51.830;5.684;2023-05-27T02:17:38;4.65;;;2.58;;
42754;SDS011;28407;51.830;5.684;2023-05-27T02:19:40;4.18;;;2.47;;
42754;SDS011;28407;51.830;5.684;2023-05-27T02:21:44;5.35;;;2.70;;
42754;SDS011;28407;51.830;5.684;2023-05-27T02:23:45;7.95;;;3.35;;
42754;SDS011;28407;51.830;5.684;2023-05-27T02:25:46;4.50;;;2.45;;
42754;SDS011;28407;51.830;5.684;2023-05-27T02:27:48;5.20;;;2.83;;
42754;SDS011;28407;51.830;5.684;2023-05-27T02:29:50;7.18;;;2.60;;
42754;SDS011;28407;51.830;5.684;2023-05-27T02:31:50;5.68;;;2.47;;
42754;SDS011;28407;51.830;5.684;2023-05-27T02:33:51;4.13;;;2.47;;
42754;SDS011;28407;51.830;5.684;2023-05-27T02:35:52;4.60;;;2.50;;
42754;SDS011;28407;51.830;5.684;2023-05-27T02:37:52;4.10;;;2.38;;
42754;SDS011;28407;51.830;5.684;2023-05-27T02:39:54;5.10;;;2.67;;
42754;SDS011;28407;51.830;5.684;2023-05-27T02:41:56;4.85;;;2.53;;
42754;SDS011;28407;51.830;5.684;2023-05-27T02:43:57;6.87;;;3.00;;
42754;SDS011;28407;51.830;5.684;2023-05-27T02:45:58;6.10;;;2.88;;
42754;SDS011;28407;51.830;5.684;2023-05-27T02:47:59;3.78;;;1.95;;
42754;SDS011;28407;51.830;5.684;2023-05-27T02:50:03;6.03;;;2.60;;
42754;SDS011;28407;51.830;5.684;2023-05-27T02:52:04;4.43;;;2.43;;
42754;SDS011;28407;51.830;5.684;2023-05-27T02:54:05;6.10;;;2.65;;
42754;SDS011;28407;51.830;5.684;2023-05-27T02:56:06;5.82;;;2.75;;
42754;SDS011;28407;51.830;5.684;2023-05-27T02:58:07;6.85;;;2.35;;
42754;SDS011;28407;51.830;5.684;2023-05-27T03:00:08;6.90;;;2.90;;
42754;SDS011;28407;51.830;5.684;2023-05-27T03:02:10;8.07;;;3.95;;
42754;SDS011;28407;51.830;5.684;2023-05-27T03:04:12;6.03;;;2.97;;
42754;SDS011;28407;51.830;5.684;2023-05-27T03:06:12;5.47;;;2.78;;
42754;SDS011;28407;51.830;5.684;2023-05-27T03:08:13;9.35;;;3.35;;
42754;SDS011;28407;51.830;5.684;2023-05-27T03:10:14;4.70;;;2.65;;
42754;SDS011;28407;51.830;5.684;2023-05-27T03:12:14;4.43;;;2.28;;
42754;SDS011;28407;51.830;5.684;2023-05-27T03:14:15;7.88;;;2.88;;
42754;SDS011;28407;51.830;5.684;2023-05-27T03:16:16;7.55;;;2.90;;
42754;SDS011;28407;51.830;5.684;2023-05-27T03:18:20;9.30;;;2.85;;
42754;SDS011;28407;51.830;5.684;2023-05-27T03:20:21;7.68;;;2.75;;
42754;SDS011;28407;51.830;5.684;2023-05-27T03:22:21;4.95;;;2.55;;
42754;SDS011;28407;51.830;5.684;2023-05-27T03:24:22;5.03;;;2.75;;
42754;SDS011;28407;51.830;5.684;2023-05-27T03:26:23;5.28;;;2.40;;
42754;SDS011;28407;51.830;5.684;2023-05-27T03:28:24;4.50;;;2.45;;
42754;SDS011;28407;51.830;5.684;2023-05-27T03:30:25;5.43;;;3.33;;
42754;SDS011;28407;51.830;5.684;2023-05-27T03:32:27;4.95;;;2.80;;
42754;SDS011;28407;51.830;5.684;2023-05-27T03:34:28;5.53;;;2.67;;
42754;SDS011;28407;51.830;5.684;2023-05-27T03:36:29;6.88;;;2.70;;
42754;SDS011;28407;51.830;5.684;2023-05-27T03:38:30;6.40;;;2.70;;
42754;SDS011;28407;51.830;5.684;2023-05-27T03:40:31;6.82;;;2.95;;
42754;SDS011;28407;51.830;5.684;2023-05-27T03:42:33;5.35;;;2.67;;
42754;SDS011;28407;51.830;5.684;2023-05-27T03:44:34;5.47;;;3.10;;
42754;SDS011;28407;51.830;5.684;2023-05-27T03:46:35;5.15;;;2.80;;
42754;SDS011;28407;51.830;5.684;2023-05-27T03:48:35;3.70;;;2.47;;
42754;SDS011;28407;51.830;5.684;2023-05-27T03:50:36;5.93;;;2.50;;
42754;SDS011;28407;51.830;5.684;2023-05-27T03:52:37;8.90;;;3.72;;
42754;SDS011;28407;51.830;5.684;2023-05-27T03:54:37;7.70;;;2.80;;
42754;SDS011;28407;51.830;5.684;2023-05-27T03:56:38;7.38;;;3.05;;
42754;SDS011;28407;51.830;5.684;2023-05-27T03:58:38;8.18;;;3.83;;
42754;SDS011;28407;51.830;5.684;2023-05-27T04:00:40;6.03;;;3.13;;
42754;SDS011;28407;51.830;5.684;2023-05-27T04:02:41;5.78;;;3.15;;
42754;SDS011;28407;51.830;5.684;2023-05-27T04:04:42;7.50;;;3.10;;
42754;SDS011;28407;51.830;5.684;2023-05-27T04:06:42;5.20;;;2.97;;
42754;SDS011;28407;51.830;5.684;2023-05-27T04:08:43;5.38;;;3.00;;
42754;SDS011;28407;51.830;5.684;2023-05-27T04:10:44;4.43;;;2.50;;
42754;SDS011;28407;51.830;5.684;2023-05-27T04:12:45;6.40;;;2.78;;
42754;SDS011;28407;51.830;5.684;2023-05-27T04:14:47;4.68;;;2.80;;
42754;SDS011;28407;51.830;5.684;2023-05-27T04:16:47;5.32;;;3.00;;
42754;SDS011;28407;51.830;5.684;2023-05-27T04:18:48;4.55;;;3.28;;
42754;SDS011;28407;51.830;5.684;2023-05-27T04:20:50;3.30;;;2.70;;
42754;SDS011;28407;51.830;5.684;2023-05-27T04:22:52;3.85;;;3.17;;
42754;SDS011;28407;51.830;5.684;2023-05-27T04:24:53;8.10;;;3.08;;
42754;SDS011;28407;51.830;5.684;2023-05-27T04:26:54;5.40;;;2.70;;
42754;SDS011;28407;51.830;5.684;2023-05-27T04:28:54;7.43;;;3.78;;
42754;SDS011;28407;51.830;5.684;2023-05-27T04:30:56;5.82;;;3.50;;
42754;SDS011;28407;51.830;5.684;2023-05-27T04:33:06;7.53;;;3.25;;
42754;SDS011;28407;51.830;5.684;2023-05-27T04:35:08;6.55;;;2.70;;
42754;SDS011;28407;51.830;5.684;2023-05-27T04:37:09;5.38;;;2.30;;
42754;SDS011;28407;51.830;5.684;2023-05-27T04:39:11;7.10;;;3.28;;
42754;SDS011;28407;51.830;5.684;2023-05-27T04:41:14;5.13;;;2.80;;
42754;SDS011;28407;51.830;5.684;2023-05-27T04:43:44;6.20;;;2.75;;
42754;SDS011;28407;51.830;5.684;2023-05-27T04:45:49;8.23;;;3.08;;
42754;SDS011;28407;51.830;5.684;2023-05-27T04:47:50;6.40;;;2.70;;
42754;SDS011;28407;51.830;5.684;2023-05-27T04:49:53;5.82;;;3.42;;
42754;SDS011;28407;51.830;5.684;2023-05-27T04:51:55;7.45;;;2.95;;
42754;SDS011;28407;51.830;5.684;2023-05-27T04:53:56;6.25;;;3.00;;
42754;SDS011;28407;51.830;5.684;2023-05-27T04:55:57;6.03;;;2.87;;
42754;SDS011;28407;51.830;5.684;2023-05-27T04:57:58;5.22;;;3.28;;
42754;SDS011;28407;51.830;5.684;2023-05-27T04:59:59;8.02;;;3.00;;
42754;SDS011;28407;51.830;5.684;2023-05-27T05:02:04;5.15;;;2.50;;
42754;SDS011;28407;51.830;5.684;2023-05-27T05:04:19;9.35;;;3.15;;
42754;SDS011;28407;51.830;5.684;2023-05-27T05:06:30;6.18;;;3.38;;
42754;SDS011;28407;51.830;5.684;2023-05-27T05:08:31;8.38;;;3.05;;
42754;SDS011;28407;51.830;5.684;2023-05-27T05:10:32;7.03;;;3.30;;
42754;SDS011;28407;51.830;5.684;2023-05-27T05:12:34;4.90;;;2.65;;
42754;SDS011;28407;51.830;5.684;2023-05-27T05:14:35;4.85;;;2.72;;
42754;SDS011;28407;51.830;5.684;2023-05-27T05:16:36;5.18;;;2.95;;
42754;SDS011;28407;51.830;5.684;2023-05-27T05:18:37;4.90;;;2.42;;
42754;SDS011;28407;51.830;5.684;2023-05-27T05:20:38;6.90;;;3.63;;
42754;SDS011;28407;51.830;5.684;2023-05-27T05:22:40;5.30;;;3.08;;
42754;SDS011;28407;51.830;5.684;2023-05-27T05:24:42;5.68;;;2.92;;
42754;SDS011;28407;51.830;5.684;2023-05-27T05:26:43;6.00;;;2.63;;
42754;SDS011;28407;51.830;5.684;2023-05-27T05:28:46;7.90;;;3.83;;
42754;SDS011;28407;51.830;5.684;2023-05-27T05:30:47;6.90;;;2.88;;
42754;SDS011;28407;51.830;5.684;2023-05-27T05:32:50;5.00;;;2.72;;
42754;SDS011;28407;51.830;5.684;2023-05-27T05:34:51;4.15;;;2.65;;
42754;SDS011;28407;51.830;5.684;2023-05-27T05:36:52;6.25;;;3.50;;
42754;SDS011;28407;51.830;5.684;2023-05-27T05:38:53;5.50;;;2.55;;
42754;SDS011;28407;51.830;5.684;2023-05-27T05:40:54;7.70;;;2.65;;
42754;SDS011;28407;51.830;5.684;2023-05-27T05:42:55;6.85;;;2.72;;
42754;SDS011;28407;51.830;5.684;2023-05-27T05:44:56;4.93;;;2.58;;
42754;SDS011;28407;51.830;5.684;2023-05-27T05:46:57;5.57;;;2.85;;
42754;SDS011;28407;51.830;5.684;2023-05-27T05:48:59;4.50;;;2.92;;
42754;SDS011;28407;51.830;5.684;2023-05-27T05:51:14;4.93;;;2.72;;
42754;SDS011;28407;51.830;5.684;2023-05-27T05:53:17;6.30;;;3.00;;
42754;SDS011;28407;51.830;5.684;2023-05-27T05:55:18;8.02;;;3.50;;
42754;SDS011;28407;51.830;5.684;2023-05-27T05:57:19;5.82;;;3.20;;
42754;SDS011;28407;51.830;5.684;2023-05-27T05:59:20;3.53;;;2.42;;
42754;SDS011;28407;51.830;5.684;2023-05-27T06:01:20;6.63;;;3.63;;
42754;SDS011;28407;51.830;5.684;2023-05-27T06:03:21;6.15;;;3.25;;
42754;SDS011;28407;51.830;5.684;2023-05-27T06:05:29;5.63;;;2.60;;
42754;SDS011;28407;51.830;5.684;2023-05-27T06:07:30;10.48;;;3.85;;
42754;SDS011;28407;51.830;5.684;2023-05-27T06:09:37;4.60;;;2.83;;
42754;SDS011;28407;51.830;5.684;2023-05-27T06:11:42;7.63;;;3.25;;
42754;SDS011;28407;51.830;5.684;2023-05-27T06:13:43;6.03;;;2.95;;
42754;SDS011;28407;51.830;5.684;2023-05-27T06:15:46;5.32;;;2.90;;
42754;SDS011;28407;51.830;5.684;2023-05-27T06:17:47;9.60;;;3.58;;
42754;SDS011;28407;51.830;5.684;2023-05-27T06:19:48;5.63;;;2.78;;
42754;SDS011;28407;51.830;5.684;2023-05-27T06:21:49;5.18;;;2.50;;
42754;SDS011;28407;51.830;5.684;2023-05-27T06:24:07;5.45;;;3.38;;
42754;SDS011;28407;51.830;5.684;2023-05-27T06:26:11;4.75;;;2.20;;
42754;SDS011;28407;51.830;5.684;2023-05-27T06:28:19;5.95;;;2.63;;
42754;SDS011;28407;51.830;5.684;2023-05-27T06:30:19;5.30;;;2.58;;
42754;SDS011;28407;51.830;5.684;2023-05-27T06:32:22;5.30;;;2.70;;
42754;SDS011;28407;51.830;5.684;2023-05-27T06:34:23;6.03;;;2.95;;
42754;SDS011;28407;51.830;5.684;2023-05-27T06:36:23;7.60;;;5.45;;
42754;SDS011;28407;51.830;5.684;2023-05-27T06:38:24;7.28;;;2.88;;
42754;SDS011;28407;51.830;5.684;2023-05-27T06:40:27;4.93;;;2.40;;
42754;SDS011;28407;51.830;5.684;2023-05-27T06:42:28;6.90;;;3.22;;
42754;SDS011;28407;51.830;5.684;2023-05-27T06:44:54;9.00;;;2.80;;
42754;SDS011;28407;51.830;5.684;2023-05-27T06:46:58;4.60;;;2.72;;
42754;SDS011;28407;51.830;5.684;2023-05-27T06:49:03;6.97;;;3.80;;
42754;SDS011;28407;51.830;5.684;2023-05-27T06:51:05;5.87;;;3.13;;
42754;SDS011;28407;51.830;5.684;2023-05-27T06:53:06;6.30;;;3.10;;
42754;SDS011;28407;51.830;5.684;2023-05-27T06:55:17;6.60;;;3.08;;
42754;SDS011;28407;51.830;5.684;2023-05-27T06:57:47;9.35;;;3.55;;
42754;SDS011;28407;51.830;5.684;2023-05-27T06:59:54;5.70;;;3.33;;
42754;SDS011;28407;51.830;5.684;2023-05-27T07:01:55;6.72;;;2.83;;
42754;SDS011;28407;51.830;5.684;2023-05-27T07:03:56;7.05;;;3.45;;
42754;SDS011;28407;51.830;5.684;2023-05-27T07:06:09;9.73;;;3.10;;
42754;SDS011;28407;51.830;5.684;2023-05-27T07:08:18;6.35;;;3.17;;
42754;SDS011;28407;51.830;5.684;2023-05-27T07:10:21;7.93;;;3.42;;
42754;SDS011;28407;51.830;5.684;2023-05-27T07:12:21;5.65;;;3.22;;
42754;SDS011;28407;51.830;5.684;2023-05-27T07:14:27;7.93;;;3.13;;
42754;SDS011;28407;51.830;5.684;2023-05-27T07:16:28;9.88;;;2.92;;
42754;SDS011;28407;51.830;5.684;2023-05-27T07:18:29;6.00;;;3.27;;
42754;SDS011;28407;51.830;5.684;2023-05-27T07:20:33;7.68;;;3.30;;
42754;SDS011;28407;51.830;5.684;2023-05-27T07:24:35;6.30;;;2.95;;
42754;SDS011;28407;51.830;5.684;2023-05-27T07:26:37;5.90;;;3.00;;
42754;SDS011;28407;51.830;5.684;2023-05-27T07:28:38;8.35;;;4.13;;
42754;SDS011;28407;51.830;5.684;2023-05-27T07:30:49;6.70;;;3.63;;
42754;SDS011;28407;51.830;5.684;2023-05-27T07:32:50;6.00;;;3.00;;
42754;SDS011;28407;51.830;5.684;2023-05-27T07:34:51;7.25;;;3.10;;
42754;SDS011;28407;51.830;5.684;2023-05-27T07:36:52;6.90;;;3.42;;
42754;SDS011;28407;51.830;5.684;2023-05-27T07:38:52;5.60;;;3.17;;
42754;SDS011;28407;51.830;5.684;2023-05-27T07:40:53;9.93;;;3.80;;
42754;SDS011;28407;51.830;5.684;2023-05-27T07:42:54;6.63;;;3.03;;
42754;SDS011;28407;51.830;5.684;2023-05-27T07:44:55;5.65;;;2.72;;
42754;SDS011;28407;51.830;5.684;2023-05-27T07:46:56;6.63;;;3.15;;
42754;SDS011;28407;51.830;5.684;2023-05-27T07:48:57;9.73;;;4.07;;
42754;SDS011;28407;51.830;5.684;2023-05-27T07:50:58;8.17;;;3.67;;
42754;SDS011;28407;51.830;5.684;2023-05-27T07:52:59;9.35;;;4.75;;
42754;SDS011;28407;51.830;5.684;2023-05-27T07:55:02;9.32;;;4.00;;
42754;SDS011;28407;51.830;5.684;2023-05-27T07:57:03;9.95;;;4.88;;
42754;SDS011;28407;51.830;5.684;2023-05-27T07:59:06;6.72;;;4.57;;
42754;SDS011;28407;51.830;5.684;2023-05-27T08:01:07;7.25;;;3.63;;
42754;SDS011;28407;51.830;5.684;2023-05-27T08:03:08;5.75;;;3.30;;
42754;SDS011;28407;51.830;5.684;2023-05-27T08:05:35;7.55;;;4.22;;
42754;SDS011;28407;51.830;5.684;2023-05-27T08:07:51;11.95;;;4.00;;
42754;SDS011;28407;51.830;5.684;2023-05-27T08:10:08;8.32;;;3.95;;
42754;SDS011;28407;51.830;5.684;2023-05-27T08:12:22;8.88;;;4.13;;
42754;SDS011;28407;51.830;5.684;2023-05-27T08:14:30;8.35;;;4.18;;
42754;SDS011;28407;51.830;5.684;2023-05-27T08:16:55;6.80;;;3.10;;
42754;SDS011;28407;51.830;5.684;2023-05-27T08:19:03;10.55;;;4.28;;
42754;SDS011;28407;51.830;5.684;2023-05-27T08:21:22;6.60;;;3.50;;
42754;SDS011;28407;51.830;5.684;2023-05-27T08:23:45;5.68;;;2.83;;
42754;SDS011;28407;51.830;5.684;2023-05-27T08:26:04;6.13;;;2.90;;
42754;SDS011;28407;51.830;5.684;2023-05-27T08:28:08;7.72;;;3.20;;
42754;SDS011;28407;51.830;5.684;2023-05-27T08:30:22;7.18;;;3.47;;
42754;SDS011;28407;51.830;5.684;2023-05-27T08:32:35;7.25;;;3.85;;
42754;SDS011;28407;51.830;5.684;2023-05-27T08:34:36;6.32;;;3.17;;
42754;SDS011;28407;51.830;5.684;2023-05-27T08:36:37;6.15;;;3.03;;
42754;SDS011;28407;51.830;5.684;2023-05-27T08:38:38;5.28;;;3.28;;
42754;SDS011;28407;51.830;5.684;2023-05-27T08:40:50;7.75;;;3.97;;
42754;SDS011;28407;51.830;5.684;2023-05-27T08:42:51;7.68;;;3.60;;
42754;SDS011;28407;51.830;5.684;2023-05-27T08:44:52;7.25;;;3.67;;
42754;SDS011;28407;51.830;5.684;2023-05-27T08:46:52;8.55;;;3.65;;
42754;SDS011;28407;51.830;5.684;2023-05-27T08:48:56;6.63;;;3.60;;
42754;SDS011;28407;51.830;5.684;2023-05-27T08:50:58;6.20;;;3.20;;
42754;SDS011;28407;51.830;5.684;2023-05-27T08:53:01;11.13;;;3.80;;
42754;SDS011;28407;51.830;5.684;2023-05-27T08:55:02;7.07;;;3.33;;
42754;SDS011;28407;51.830;5.684;2023-05-27T08:57:05;7.85;;;4.30;;
42754;SDS011;28407;51.830;5.684;2023-05-27T08:59:07;6.35;;;2.90;;
42754;SDS011;28407;51.830;5.684;2023-05-27T09:01:08;9.38;;;3.88;;
42754;SDS011;28407;51.830;5.684;2023-05-27T09:03:09;8.98;;;3.45;;
42754;SDS011;28407;51.830;5.684;2023-05-27T09:05:11;5.03;;;3.10;;
42754;SDS011;28407;51.830;5.684;2023-05-27T09:07:13;12.82;;;4.03;;
42754;SDS011;28407;51.830;5.684;2023-05-27T09:09:14;6.70;;;3.10;;
42754;SDS011;28407;51.830;5.684;2023-05-27T09:11:23;11.27;;;3.67;;
42754;SDS011;28407;51.830;5.684;2023-05-27T09:13:26;9.75;;;3.95;;
42754;SDS011;28407;51.830;5.684;2023-05-27T09:15:30;5.35;;;3.28;;
42754;SDS011;28407;51.830;5.684;2023-05-27T09:17:32;5.47;;;3.03;;
42754;SDS011;28407;51.830;5.684;2023-05-27T09:19:32;7.53;;;3.72;;
42754;SDS011;28407;51.830;5.684;2023-05-27T09:21:33;5.55;;;3.08;;
42754;SDS011;28407;51.830;5.684;2023-05-27T09:23:37;8.07;;;3.53;;
42754;SDS011;28407;51.830;5.684;2023-05-27T09:25:39;8.00;;;3.47;;
42754;SDS011;28407;51.830;5.684;2023-05-27T09:27:41;8.70;;;3.67;;
42754;SDS011;28407;51.830;5.684;2023-05-27T09:29:43;9.57;;;3.63;;
42754;SDS011;28407;51.830;5.684;2023-05-27T09:31:44;7.05;;;3.50;;
42754;SDS011;28407;51.830;5.684;2023-05-27T09:33:45;7.47;;;3.40;;
42754;SDS011;28407;51.830;5.684;2023-05-27T09:35:46;4.50;;;2.97;;
42754;SDS011;28407;51.830;5.684;2023-05-27T09:37:47;8.02;;;4.70;;
42754;SDS011;28407;51.830;5.684;2023-05-27T09:39:47;5.82;;;2.67;;
42754;SDS011;28407;51.830;5.684;2023-05-27T09:41:55;6.53;;;2.75;;
42754;SDS011;28407;51.830;5.684;2023-05-27T09:43:58;8.75;;;3.20;;
42754;SDS011;28407;51.830;5.684;2023-05-27T09:46:01;6.80;;;3.20;;
42754;SDS011;28407;51.830;5.684;2023-05-27T09:48:03;5.70;;;2.70;;
42754;SDS011;28407;51.830;5.684;2023-05-27T09:50:04;4.90;;;2.90;;
42754;SDS011;28407;51.830;5.684;2023-05-27T09:52:07;4.20;;;2.58;;
42754;SDS011;28407;51.830;5.684;2023-05-27T09:54:10;6.43;;;2.92;;
42754;SDS011;28407;51.830;5.684;2023-05-27T09:56:18;6.53;;;2.42;;
42754;SDS011;28407;51.830;5.684;2023-05-27T09:58:19;7.63;;;3.10;;
42754;SDS011;28407;51.830;5.684;2023-05-27T10:00:21;5.63;;;2.95;;
42754;SDS011;28407;51.830;5.684;2023-05-27T10:02:23;5.75;;;2.10;;
42754;SDS011;28407;51.830;5.684;2023-05-27T10:04:27;9.43;;;3.45;;
42754;SDS011;28407;51.830;5.684;2023-05-27T10:06:29;5.20;;;3.05;;
42754;SDS011;28407;51.830;5.684;2023-05-27T10:08:32;7.15;;;3.13;;
42754;SDS011;28407;51.830;5.684;2023-05-27T10:10:33;6.15;;;3.03;;
42754;SDS011;28407;51.830;5.684;2023-05-27T10:12:34;6.13;;;3.85;;
42754;SDS011;28407;51.830;5.684;2023-05-27T10:14:36;8.43;;;3.75;;
42754;SDS011;28407;51.830;5.684;2023-05-27T10:16:38;9.77;;;3.35;;
42754;SDS011;28407;51.830;5.684;2023-05-27T10:18:41;6.10;;;2.72;;
42754;SDS011;28407;51.830;5.684;2023-05-27T10:20:43;11.07;;;3.47;;
42754;SDS011;28407;51.830;5.684;2023-05-27T10:22:48;6.15;;;2.47;;
42754;SDS011;28407;51.830;5.684;2023-05-27T10:24:49;4.20;;;2.05;;
42754;SDS011;28407;51.830;5.684;2023-05-27T10:26:59;6.20;;;2.78;;
42754;SDS011;28407;51.830;5.684;2023-05-27T10:29:11;7.60;;;2.42;;
42754;SDS011;28407;51.830;5.684;2023-05-27T10:31:18;5.03;;;2.42;;
42754;SDS011;28407;51.830;5.684;2023-05-27T10:33:33;5.00;;;2.28;;
42754;SDS011;28407;51.830;5.684;2023-05-27T10:35:38;5.55;;;2.03;;
42754;SDS011;28407;51.830;5.684;2023-05-27T10:39:41;7.47;;;3.15;;
42754;SDS011;28407;51.830;5.684;2023-05-27T10:41:42;5.57;;;2.47;;
42754;SDS011;28407;51.830;5.684;2023-05-27T10:43:59;7.18;;;2.30;;
42754;SDS011;28407;51.830;5.684;2023-05-27T10:46:03;4.35;;;2.20;;
42754;SDS011;28407;51.830;5.684;2023-05-27T10:48:20;5.72;;;2.75;;
42754;SDS011;28407;51.830;5.684;2023-05-27T10:50:31;6.53;;;2.25;;
42754;SDS011;28407;51.830;5.684;2023-05-27T10:52:34;5.88;;;1.80;;
42754;SDS011;28407;51.830;5.684;2023-05-27T10:54:39;4.70;;;1.90;;
42754;SDS011;28407;51.830;5.684;2023-05-27T10:56:50;5.32;;;1.73;;
42754;SDS011;28407;51.830;5.684;2023-05-27T10:58:51;4.63;;;1.83;;
42754;SDS011;28407;51.830;5.684;2023-05-27T11:02:56;6.70;;;2.55;;
42754;SDS011;28407;51.830;5.684;2023-05-27T11:04:57;6.25;;;2.00;;
42754;SDS011;28407;51.830;5.684;2023-05-27T11:06:58;6.43;;;3.03;;
42754;SDS011;28407;51.830;5.684;2023-05-27T11:09:03;3.47;;;1.73;;
42754;SDS011;28407;51.830;5.684;2023-05-27T11:11:07;5.97;;;1.85;;
42754;SDS011;28407;51.830;5.684;2023-05-27T11:13:10;7.13;;;2.45;;
42754;SDS011;28407;51.830;5.684;2023-05-27T11:15:11;4.78;;;2.20;;
42754;SDS011;28407;51.830;5.684;2023-05-27T11:17:12;6.05;;;1.98;;
42754;SDS011;28407;51.830;5.684;2023-05-27T11:19:13;5.50;;;1.60;;
42754;SDS011;28407;51.830;5.684;2023-05-27T11:21:14;6.68;;;2.92;;
42754;SDS011;28407;51.830;5.684;2023-05-27T11:23:16;5.32;;;1.83;;
42754;SDS011;28407;51.830;5.684;2023-05-27T11:25:16;6.78;;;2.22;;
42754;SDS011;28407;51.830;5.684;2023-05-27T11:27:17;6.43;;;2.92;;
42754;SDS011;28407;51.830;5.684;2023-05-27T11:29:18;7.25;;;2.40;;
42754;SDS011;28407;51.830;5.684;2023-05-27T11:31:19;3.65;;;1.88;;
42754;SDS011;28407;51.830;5.684;2023-05-27T11:33:29;5.13;;;1.90;;
42754;SDS011;28407;51.830;5.684;2023-05-27T11:35:31;3.80;;;1.52;;
42754;SDS011;28407;51.830;5.684;2023-05-27T11:39:34;6.40;;;2.03;;
42754;SDS011;28407;51.830;5.684;2023-05-27T11:41:35;9.98;;;2.00;;
42754;SDS011;28407;51.830;5.684;2023-05-27T11:43:37;3.85;;;1.48;;
42754;SDS011;28407;51.830;5.684;2023-05-27T11:45:47;4.35;;;2.13;;
42754;SDS011;28407;51.830;5.684;2023-05-27T11:47:47;4.95;;;1.70;;
42754;SDS011;28407;51.830;5.684;2023-05-27T11:49:50;8.20;;;2.67;;
42754;SDS011;28407;51.830;5.684;2023-05-27T11:51:54;4.70;;;1.80;;
42754;SDS011;28407;51.830;5.684;2023-05-27T11:53:57;4.22;;;1.80;;
42754;SDS011;28407;51.830;5.684;2023-05-27T11:55:58;6.32;;;1.85;;
42754;SDS011;28407;51.830;5.684;2023-05-27T11:57:59;6.10;;;2.58;;
42754;SDS011;28407;51.830;5.684;2023-05-27T12:00:00;7.68;;;3.28;;
42754;SDS011;28407;51.830;5.684;2023-05-27T12:02:00;4.80;;;1.63;;
42754;SDS011;28407;51.830;5.684;2023-05-27T12:04:01;4.88;;;2.05;;
42754;SDS011;28407;51.830;5.684;2023-05-27T12:06:02;6.43;;;2.20;;
42754;SDS011;28407;51.830;5.684;2023-05-27T12:08:03;7.18;;;2.33;;
42754;SDS011;28407;51.830;5.684;2023-05-27T12:10:04;3.65;;;1.40;;
42754;SDS011;28407;51.830;5.684;2023-05-27T12:12:05;6.00;;;1.53;;
42754;SDS011;28407;51.830;5.684;2023-05-27T12:14:06;5.77;;;1.67;;
42754;SDS011;28407;51.830;5.684;2023-05-27T12:16:07;3.92;;;1.55;;
42754;SDS011;28407;51.830;5.684;2023-05-27T12:18:08;5.35;;;1.75;;
42754;SDS011;28407;51.830;5.684;2023-05-27T12:20:09;6.43;;;2.70;;
42754;SDS011;28407;51.830;5.684;2023-05-27T12:24:11;6.07;;;1.95;;
42754;SDS011;28407;51.830;5.684;2023-05-27T12:26:12;4.60;;;1.27;;
42754;SDS011;28407;51.830;5.684;2023-05-27T12:28:14;5.43;;;1.77;;
42754;SDS011;28407;51.830;5.684;2023-05-27T12:30:14;6.10;;;1.77;;
42754;SDS011;28407;51.830;5.684;2023-05-27T12:32:15;4.43;;;1.60;;
42754;SDS011;28407;51.830;5.684;2023-05-27T12:34:16;5.47;;;1.52;;